Time;durP1;ratioP1;P1;durP2;ratioP2;P2;SDS_P1;SDS_P2;PMS_P1;PMS_P2;Temp;Humidity;BMP_temperature;BMP_pressure;BME280_temperature;BME280_humidity;BME280_pressure;Samples;Min_cycle;Max_cycle;Signal;HPM_P1;HPM_P2
2022/08/22 00:01:39;;;;;;;0.60;0.30;;;;;;;16.22;100.00;96108.38;1698584;84;20949;-83
2022/08/22 00:04:37;;;;;;;;;;;;;;;16.24;100.00;96108.15;1700897;84;20983;-83
2022/08/22 00:07:13;;;;;;;1.10;0.57;;;;;;;16.24;100.00;96113.39;1690062;83;20104;-83
2022/08/22 00:09:57;;;;;;;2.35;0.42;;;;;;;16.20;100.00;96108.59;1683279;84;21013;-83
2022/08/22 00:12:46;;;;;;;0.40;0.30;;;;;;;16.21;100.00;96112.02;1618811;87;21056;-84
2022/08/22 00:15:38;;;;;;;1.42;0.30;;;;;;;16.23;100.00;96107.34;1665844;84;21036;-84
2022/08/22 00:18:30;;;;;;;0.40;0.20;;;;;;;16.27;100.00;96107.21;1645854;86;20952;-84
2022/08/22 00:21:26;;;;;;;0.30;0.20;;;;;;;16.28;100.00;96104.08;1665824;84;21024;-83
2022/08/22 00:24:24;;;;;;;1.17;0.35;;;;;;;16.29;100.00;96101.74;1657830;84;20963;-83
2022/08/22 00:27:04;;;;;;;0.10;0.10;;;;;;;16.34;100.00;96109.21;1669679;85;21323;-83
2022/08/22 00:29:55;;;;;;;0.80;0.20;;;;;;;16.34;100.00;96116.28;1671102;85;20952;-82
2022/08/22 00:32:30;;;;;;;1.07;0.40;;;;;;;16.31;100.00;96109.67;1670325;84;21087;-82
2022/08/22 00:35:20;;;;;;;0.60;0.30;;;;;;;16.30;100.00;96112.00;1648660;84;21350;-82
2022/08/22 00:38:08;;;;;;;0.23;0.10;;;;;;;16.31;100.00;96116.22;1621983;86;21030;-83
2022/08/22 00:40:55;;;;;;;1.05;0.23;;;;;;;16.35;100.00;96113.95;1660650;84;20995;-83
2022/08/22 00:43:58;;;;;;;0.95;0.30;;;;;;;16.38;100.00;96113.48;1663169;84;21047;-83
2022/08/22 00:47:00;;;;;;;2.20;0.40;;;;;;;16.43;100.00;96107.88;1666290;84;21406;-83
2022/08/22 00:49:37;;;;;;;0.55;0.20;;;;;;;16.48;100.00;96117.17;1663864;84;20992;-83
2022/08/22 00:52:21;;;;;;;0.47;0.10;;;;;;;16.51;100.00;96108.85;1658806;84;20973;-83
2022/08/22 00:55:07;;;;;;;0.78;0.20;;;;;;;16.53;100.00;96105.20;1655779;84;20992;-83
2022/08/22 00:57:55;;;;;;;1.10;0.40;;;;;;;16.51;100.00;96104.13;1667746;84;21022;-83
2022/08/22 01:00:24;;;;;;;0.68;0.20;;;;;;;16.54;100.00;96108.91;1660982;84;21018;-83
2022/08/22 01:03:29;;;;;;;2.15;0.20;;;;;;;16.53;100.00;96102.58;1670990;84;21015;-83
2022/08/22 01:06:06;;;;;;;0.35;0.20;;;;;;;16.50;100.00;96099.39;1672303;84;20957;-83
2022/08/22 01:08:57;;;;;;;0.47;0.28;;;;;;;16.49;100.00;96096.48;1674085;83;21103;-83
2022/08/22 01:11:57;;;;;;;0.10;0.10;;;;;;;16.51;100.00;96101.50;1691578;83;21117;-83
2022/08/22 01:14:48;;;;;;;0.42;0.20;;;;;;;16.50;100.00;96095.45;1677405;82;21032;-83
2022/08/22 01:17:36;;;;;;;0.20;0.10;;;;;;;16.49;100.00;96099.10;1688665;84;20996;-83
2022/08/22 01:20:38;;;;;;;0.55;0.10;;;;;;;16.47;100.00;96098.53;1683995;83;21008;-84
2022/08/22 01:23:47;;;;;;;1.12;0.20;;;;;;;16.47;100.00;96100.36;1683972;83;21060;-83
2022/08/22 01:26:38;;;;;;;0.20;0.10;;;;;;;16.46;100.00;96104.00;1695803;83;21043;-84
2022/08/22 01:29:39;;;;;;;0.30;0.20;;;;;;;16.42;100.00;96103.63;1698420;84;21100;-84
2022/08/22 01:32:46;;;;;;;0.95;0.20;;;;;;;16.42;100.00;96098.39;1678391;84;21025;-84
2022/08/22 01:35:29;;;;;;;0.28;0.20;;;;;;;16.41;100.00;96108.59;1684917;83;21075;-84
2022/08/22 01:38:10;;;;;;;0.45;0.15;;;;;;;16.39;100.00;96107.22;1683244;84;20942;-84
2022/08/22 01:40:59;;;;;;;0.85;0.20;;;;;;;16.37;100.00;96108.77;1700692;83;20980;-83
2022/08/22 01:44:04;;;;;;;0.37;0.10;;;;;;;16.40;100.00;96104.88;1686716;84;21031;-84
2022/08/22 01:47:03;;;;;;;0.85;0.30;;;;;;;16.40;100.00;96108.30;1691487;83;20984;-84
2022/08/22 01:49:52;;;;;;;0.37;0.20;;;;;;;16.39;100.00;96104.60;1685884;83;21104;-84
2022/08/22 01:52:29;;;;;;;1.42;0.30;;;;;;;16.34;100.00;96104.48;1687687;83;21015;-84
2022/08/22 01:54:59;;;;;;;0.20;0.20;;;;;;;16.33;100.00;96101.06;1659624;84;21027;-84
2022/08/22 01:57:25;;;;;;;2.02;0.37;;;;;;;16.30;100.00;96098.09;1693794;83;20988;-84
2022/08/22 01:59:55;;;;;;;0.75;0.30;;;;;;;16.28;100.00;96108.02;1700737;83;20952;-84
2022/08/22 02:02:54;;;;;;;4.75;3.62;;;;;;;16.27;100.00;96101.14;1628834;86;20969;-84
2022/08/22 02:05:37;;;;;;;2.27;1.47;;;;;;;16.27;100.00;96099.83;1688615;83;20956;-84
2022/08/22 02:08:45;;;;;;;1.85;0.95;;;;;;;16.27;100.00;96101.97;1673662;84;21360;-84
2022/08/22 02:11:40;;;;;;;1.45;0.70;;;;;;;16.26;100.00;96101.66;1674908;84;21066;-84
2022/08/22 02:14:39;;;;;;;0.70;0.33;;;;;;;16.25;100.00;96092.70;1668562;84;21051;-83
2022/08/22 02:17:37;;;;;;;3.90;2.35;;;;;;;16.20;100.00;96092.88;1669355;84;21083;-85
2022/08/22 02:20:17;;;;;;;1.37;1.00;;;;;;;16.19;100.00;96099.65;1665932;84;20984;-84
2022/08/22 02:23:09;;;;;;;1.70;0.78;;;;;;;16.14;100.00;96105.57;1683079;84;21007;-84
2022/08/22 02:25:56;;;;;;;0.50;0.40;;;;;;;16.11;100.00;96101.29;1670576;84;21102;-84
2022/08/22 02:28:49;;;;;;;6.12;4.80;;;;;;;16.11;100.00;96098.67;1671812;84;21002;-83
2022/08/22 02:31:42;;;;;;;5.90;5.40;;;;;;;16.10;100.00;96097.84;1674863;84;21023;-85
2022/08/22 02:34:23;;;;;;;;;;;;;;;16.10;100.00;96103.59;1673252;84;21529;-85
2022/08/22 02:37:36;;;;;;;3.20;0.70;;;;;;;16.10;100.00;96099.16;1660579;84;20134;-84
2022/08/22 02:40:26;;;;;;;0.40;0.40;;;;;;;16.09;100.00;96096.25;1659854;84;21354;-83
2022/08/22 02:43:23;;;;;;;4.42;4.10;;;;;;;16.09;100.00;96093.63;1664107;84;21047;-83
2022/08/22 02:46:14;;;;;;;1.40;1.30;;;;;;;16.10;100.00;96091.80;1653606;84;21051;-83
2022/08/22 02:49:11;;;;;;;0.42;0.40;;;;;;;16.09;100.00;96092.83;1689920;84;21011;-84
2022/08/22 02:51:45;;;;;;;0.60;0.47;;;;;;;16.08;100.00;96094.65;1655670;84;21007;-83
2022/08/22 02:54:26;;;;;;;0.40;0.40;;;;;;;16.05;100.00;96095.09;1648298;84;21032;-83
2022/08/22 02:57:03;;;;;;;2.45;2.25;;;;;;;16.03;100.00;96095.84;1662826;84;21031;-83
2022/08/22 02:59:40;;;;;;;3.35;3.05;;;;;;;16.07;100.00;96094.88;1672330;84;21049;-83
2022/08/22 03:02:32;;;;;;;1.00;0.90;;;;;;;16.06;100.00;96093.27;1675779;84;20995;-82
2022/08/22 03:05:24;;;;;;;1.02;0.93;;;;;;;16.05;100.00;96094.30;1666164;85;21085;-83
2022/08/22 03:08:14;;;;;;;0.42;0.42;;;;;;;16.03;100.00;96088.48;1672503;84;21007;-83
2022/08/22 03:11:18;;;;;;;2.75;0.65;;;;;;;16.03;100.00;96087.97;1696943;83;21054;-83
2022/08/22 03:14:11;;;;;;;1.00;0.90;;;;;;;16.05;100.00;96086.44;1655683;84;21046;-83
2022/08/22 03:17:09;;;;;;;1.00;0.80;;;;;;;16.04;100.00;96085.64;1686867;84;21020;-83
2022/08/22 03:20:00;;;;;;;0.60;0.40;;;;;;;16.02;100.00;96090.31;1653462;84;21076;-83
2022/08/22 03:22:34;;;;;;;3.50;3.10;;;;;;;16.02;100.00;96090.82;1678637;84;21435;-83
2022/08/22 03:25:31;;;;;;;1.35;1.12;;;;;;;16.03;100.00;96094.52;1675633;84;20984;-83
2022/08/22 03:28:20;;;;;;;0.80;0.80;;;;;;;16.06;100.00;96090.14;1685789;84;21011;-83
2022/08/22 03:31:15;;;;;;;0.45;0.40;;;;;;;16.11;100.00;96092.92;1675795;84;21002;-83
2022/08/22 03:33:41;;;;;;;0.93;0.65;;;;;;;16.15;100.00;96093.27;1689711;83;21012;-83
2022/08/22 03:36:12;;;;;;;1.22;0.40;;;;;;;16.18;100.00;96101.98;1619091;88;21382;-83
2022/08/22 03:39:03;;;;;;;0.70;0.50;;;;;;;16.16;100.00;96102.21;1660452;84;21002;-81
2022/08/22 03:41:59;;;;;;;0.57;0.50;;;;;;;16.15;100.00;96100.61;1665873;83;21418;-83
2022/08/22 03:44:36;;;;;;;0.60;0.45;;;;;;;16.16;100.00;96096.17;1620863;87;21052;-83
2022/08/22 03:47:39;;;;;;;0.80;0.57;;;;;;;16.18;100.00;96094.92;1612448;87;21001;-83
2022/08/22 03:50:39;;;;;;;0.55;0.33;;;;;;;16.20;100.00;96107.29;1690193;83;20952;-83
2022/08/22 03:53:33;;;;;;;1.80;0.93;;;;;;;16.24;100.00;96107.64;1684038;84;21036;-83
2022/08/22 03:56:23;;;;;;;0.78;0.70;;;;;;;16.23;100.00;96098.17;1683969;83;21039;-83
2022/08/22 03:59:13;;;;;;;0.47;0.40;;;;;;;16.19;100.00;96094.41;1677008;84;21000;-83
2022/08/22 04:02:29;;;;;;;1.30;0.40;;;;;;;16.17;100.00;96102.50;1680454;84;20936;-83
2022/08/22 04:05:13;;;;;;;0.53;0.45;;;;;;;16.18;100.00;96104.09;1672781;84;21094;-83
2022/08/22 04:07:47;;;;;;;0.47;0.30;;;;;;;16.18;100.00;96101.47;1688167;84;21016;-83
2022/08/22 04:10:59;;;;;;;0.75;0.72;;;;;;;16.18;100.00;96109.84;1625210;86;21091;-82
2022/08/22 04:13:54;;;;;;;0.40;0.37;;;;;;;16.16;100.00;96109.28;1627036;86;21154;-83
2022/08/22 04:16:49;;;;;;;0.60;0.55;;;;;;;16.16;100.00;96112.70;1626946;87;21032;-83
2022/08/22 04:19:33;;;;;;;0.72;0.70;;;;;;;16.17;100.00;96116.91;1660299;84;21485;-83
2022/08/22 04:22:41;;;;;;;1.77;0.90;;;;;;;16.19;100.00;96111.45;1670413;84;20991;-84
2022/08/22 04:25:24;;;;;;;2.33;2.12;;;;;;;16.19;100.00;96117.48;1673560;84;21402;-84
2022/08/22 04:28:15;;;;;;;2.70;2.50;;;;;;;16.21;100.00;96117.27;1631823;86;20976;-84
2022/08/22 04:30:51;;;;;;;2.90;2.70;;;;;;;16.19;100.00;96121.42;1601657;87;21045;-85
2022/08/22 04:33:41;;;;;;;1.85;1.30;;;;;;;16.17;100.00;96119.53;1673109;84;20988;-84
2022/08/22 04:36:40;;;;;;;0.80;0.60;;;;;;;16.19;100.00;96120.11;1666379;85;21012;-84
2022/08/22 04:39:33;;;;;;;0.50;0.40;;;;;;;16.20;100.00;96121.70;1676427;84;21055;-84
2022/08/22 04:42:14;;;;;;;1.47;0.57;;;;;;;16.21;100.00;96119.38;1672584;84;20967;-84
2022/08/22 04:44:57;;;;;;;0.53;0.40;;;;;;;16.25;100.00;96128.09;1662675;84;21013;-84
2022/08/22 04:47:30;;;;;;;0.53;0.37;;;;;;;16.20;100.00;96122.22;1668109;84;20908;-84
2022/08/22 04:50:23;;;;;;;0.55;0.40;;;;;;;16.17;100.00;96123.47;1655874;84;21327;-84
2022/08/22 04:52:57;;;;;;;0.60;0.53;;;;;;;16.19;100.00;96133.22;1658859;84;20992;-84
2022/08/22 04:56:04;;;;;;;0.57;0.40;;;;;;;16.19;100.00;96138.45;1669132;84;21008;-85
2022/08/22 04:58:57;;;;;;;0.30;0.25;;;;;;;16.15;100.00;96137.31;1665928;84;21017;-84
2022/08/22 05:01:27;;;;;;;1.90;1.10;;;;;;;16.12;100.00;96135.66;1661774;84;20979;-84
2022/08/22 05:04:01;;;;;;;2.62;1.52;;;;;;;16.15;100.00;96139.94;1658230;84;21036;-84
2022/08/22 05:06:31;;;;;;;1.20;0.60;;;;;;;16.15;100.00;96145.17;1669461;84;21430;-84
2022/08/22 05:09:03;;;;;;;0.70;0.50;;;;;;;16.14;100.00;96142.78;1679599;82;21000;-84
2022/08/22 05:11:29;;;;;;;0.93;0.55;;;;;;;16.12;100.00;96146.13;1684925;82;20980;-84
2022/08/22 05:14:05;;;;;;;1.12;0.60;;;;;;;16.08;100.00;96141.02;1672718;84;21461;-84
2022/08/22 05:16:36;;;;;;;1.32;0.60;;;;;;;16.08;100.00;96145.75;1682622;83;21450;-84
2022/08/22 05:19:10;;;;;;;1.22;0.60;;;;;;;16.08;100.00;96148.38;1684212;83;20971;-85
2022/08/22 05:21:37;;;;;;;1.00;0.62;;;;;;;16.08;100.00;96154.13;1670636;83;21052;-84
2022/08/22 05:24:10;;;;;;;0.70;0.50;;;;;;;16.04;100.00;96152.47;1686364;84;21075;-84
2022/08/22 05:26:43;;;;;;;2.50;0.50;;;;;;;16.01;100.00;96151.61;1676465;83;21076;-85
2022/08/22 05:29:10;;;;;;;1.98;0.60;;;;;;;16.03;100.00;96152.69;1696053;83;21436;-84
2022/08/22 05:31:48;;;;;;;1.42;0.70;;;;;;;16.04;100.00;96152.98;1686895;83;21000;-84
2022/08/22 05:34:19;;;;;;;1.10;1.00;;;;;;;16.05;100.00;96154.06;1677676;83;21078;-84
2022/08/22 05:36:59;;;;;;;1.15;0.75;;;;;;;16.04;100.00;96159.02;1685509;83;20964;-84
2022/08/22 05:39:26;;;;;;;1.92;1.02;;;;;;;16.05;100.00;96159.30;1686601;83;21063;-84
2022/08/22 05:41:54;;;;;;;1.50;0.95;;;;;;;16.05;100.00;96156.69;1685885;83;21067;-83
2022/08/22 05:44:24;;;;;;;1.65;1.00;;;;;;;16.07;100.00;96149.40;1675713;84;21099;-84
2022/08/22 05:47:22;;;;;;;2.22;1.22;;;;;;;16.08;100.00;96158.06;1691568;83;21383;-84
2022/08/22 05:50:18;;;;;;;2.02;1.40;;;;;;;16.04;100.00;96156.91;1697348;83;20968;-84
2022/08/22 05:53:09;;;;;;;2.50;1.57;;;;;;;16.02;100.00;96155.83;1669641;84;20987;-84
2022/08/22 05:55:56;;;;;;;1.77;1.62;;;;;;;16.04;100.00;96155.09;1686103;82;20964;-84
2022/08/22 05:58:47;;;;;;;3.02;1.87;;;;;;;16.03;100.00;96158.73;1668564;83;21358;-84
2022/08/22 06:01:24;;;;;;;2.45;1.47;;;;;;;16.04;100.00;96157.71;1682801;83;21012;-84
2022/08/22 06:04:12;;;;;;;3.17;1.55;;;;;;;16.03;100.00;96165.28;1702877;83;21391;-84
2022/08/22 06:06:43;;;;;;;4.50;2.08;;;;;;;16.04;100.00;96159.02;1695278;83;21367;-83
2022/08/22 06:09:15;;;;;;;4.42;2.10;;;;;;;16.08;100.00;96168.03;1685312;83;21294;-83
2022/08/22 06:12:10;;;;;;;7.58;2.40;;;;;;;16.10;100.00;96169.92;1660169;84;20996;-83
2022/08/22 06:14:47;;;;;;;2.52;2.33;;;;;;;16.08;100.00;96164.61;1649536;84;21032;-82
2022/08/22 06:17:20;;;;;;;3.10;2.42;;;;;;;16.04;100.00;96173.95;1666768;84;21019;-82
2022/08/22 06:19:48;;;;;;;4.97;2.60;;;;;;;16.04;100.00;96171.33;1662963;84;20987;-83
2022/08/22 06:22:22;;;;;;;3.05;2.33;;;;;;;16.04;100.00;96171.33;1672173;84;20948;-83
2022/08/22 06:24:48;;;;;;;2.80;2.50;;;;;;;16.08;100.00;96168.55;1673273;84;21103;-83
2022/08/22 06:27:16;;;;;;;3.20;2.60;;;;;;;16.09;100.00;96168.32;1656169;84;21088;-83
2022/08/22 06:29:51;;;;;;;2.75;2.50;;;;;;;16.09;100.00;96169.63;1673680;84;21068;-83
2022/08/22 06:32:24;;;;;;;5.85;2.40;;;;;;;16.10;100.00;96175.67;1663273;84;20980;-83
2022/08/22 06:34:50;;;;;;;4.72;3.05;;;;;;;16.11;100.00;96172.86;1647040;84;21049;-82
2022/08/22 06:37:24;;;;;;;3.10;2.60;;;;;;;16.13;100.00;96176.56;1665416;85;21050;-83
2022/08/22 06:39:51;;;;;;;3.92;2.85;;;;;;;16.16;100.00;96178.73;1659978;84;21350;-83
2022/08/22 06:42:27;;;;;;;4.25;2.90;;;;;;;16.16;100.00;96183.98;1658759;85;20984;-83
2022/08/22 06:45:03;;;;;;;3.80;2.45;;;;;;;16.16;100.00;96185.29;1659669;85;21094;-83
2022/08/22 06:47:49;;;;;;;3.17;2.65;;;;;;;16.16;100.00;96182.16;1657628;84;21118;-83
2022/08/22 06:50:22;;;;;;;4.35;2.58;;;;;;;16.16;100.00;96190.02;1654518;84;21055;-83
2022/08/22 06:52:58;;;;;;;2.98;2.50;;;;;;;16.15;100.00;96191.55;1656375;85;21013;-83
2022/08/22 06:55:25;;;;;;;3.40;2.90;;;;;;;16.13;100.00;96193.09;1656607;84;21095;-84
2022/08/22 06:58:02;;;;;;;3.10;2.75;;;;;;;16.17;100.00;96192.13;1656907;84;20963;-83
2022/08/22 07:00:28;;;;;;;4.20;2.90;;;;;;;16.17;100.00;96180.34;1668735;84;21050;-83
2022/08/22 07:02:58;;;;;;;5.08;3.20;;;;;;;16.18;100.00;96189.28;1658772;84;21386;-83
2022/08/22 07:05:27;;;;;;;3.67;3.02;;;;;;;16.18;100.00;96187.98;1652831;85;21346;-83
2022/08/22 07:07:53;;;;;;;3.17;2.72;;;;;;;16.21;100.00;96189.35;1659605;84;21000;-83
2022/08/22 07:10:21;;;;;;;5.40;2.87;;;;;;;16.25;100.00;96189.70;1658659;84;21423;-83
2022/08/22 07:12:49;;;;;;;2.98;2.67;;;;;;;16.22;100.00;96187.02;1658155;85;20956;-84
2022/08/22 07:15:35;;;;;;;4.35;3.00;;;;;;;16.21;100.00;96191.45;1669112;85;21012;-83
2022/08/22 07:18:09;;;;;;;6.80;3.55;;;;;;;16.20;100.00;96195.10;1679168;82;20999;-84
2022/08/22 07:20:40;;;;;;;3.98;2.67;;;;;;;16.19;100.00;96188.27;1637787;86;21059;-84
2022/08/22 07:23:13;;;;;;;3.37;2.70;;;;;;;16.19;100.00;96184.33;1668199;86;21002;-85
2022/08/22 07:25:53;;;;;;;4.62;3.30;;;;;;;16.20;100.00;96183.30;1677744;83;21394;-85
2022/08/22 07:28:45;;;;;;;3.72;3.12;;;;;;;16.20;100.00;96183.30;1677075;83;20992;-85
2022/08/22 07:31:29;;;;;;;4.40;3.58;;;;;;;16.21;100.00;96188.04;1681614;83;21063;-85
2022/08/22 07:34:10;;;;;;;4.80;3.15;;;;;;;16.21;100.00;96195.91;1679514;82;21059;-84
2022/08/22 07:36:47;;;;;;;4.85;2.83;;;;;;;16.23;100.00;96192.55;1693702;84;20989;-85
2022/08/22 07:39:25;;;;;;;5.25;3.52;;;;;;;16.24;100.00;96190.73;1686573;83;21304;-85
2022/08/22 07:42:09;;;;;;;5.70;3.40;;;;;;;16.24;100.00;96192.03;1644657;84;20976;-85
2022/08/22 07:45:10;;;;;;;3.95;3.22;;;;;;;16.25;100.00;96193.63;1652085;85;21047;-84
2022/08/22 07:47:47;;;;;;;4.35;2.92;;;;;;;16.27;100.00;96187.66;1630871;86;21023;-85
2022/08/22 07:50:16;;;;;;;3.47;2.67;;;;;;;16.31;100.00;96190.14;1693033;82;21095;-84
2022/08/22 07:52:43;;;;;;;3.85;2.92;;;;;;;16.34;100.00;96191.01;1685264;83;21034;-85
2022/08/22 07:55:22;;;;;;;4.05;2.70;;;;;;;16.31;100.00;96193.56;1630151;86;21019;-85
2022/08/22 07:57:55;;;;;;;4.40;2.77;;;;;;;16.13;100.00;96168.19;1615016;86;21070;-84
2022/08/22 08:00:22;;;;;;;3.45;2.85;;;;;;;16.28;100.00;96185.35;1652163;84;21090;-85
2022/08/22 08:02:53;;;;;;;3.47;2.98;;;;;;;16.30;100.00;96181.99;1656645;84;21064;-85
2022/08/22 08:05:22;;;;;;;3.00;2.70;;;;;;;16.34;100.00;96183.14;1636087;86;21042;-85
2022/08/22 08:07:51;;;;;;;2.90;2.60;;;;;;;16.37;100.00;96181.38;1665422;83;21486;-85
2022/08/22 08:10:34;;;;;;;2.62;2.33;;;;;;;16.36;100.00;96175.84;1658406;84;21422;-84
2022/08/22 08:13:06;;;;;;;2.35;2.15;;;;;;;16.38;100.00;96186.91;1683871;84;20987;-84
2022/08/22 08:15:34;;;;;;;2.30;2.10;;;;;;;16.42;100.00;96188.05;1692774;84;21094;-85
2022/08/22 08:18:18;;;;;;;2.70;2.00;;;;;;;16.44;100.00;96183.41;1686053;84;20978;-85
2022/08/22 08:20:43;;;;;;;3.42;2.08;;;;;;;16.45;100.00;96183.70;1688355;84;21366;-84
2022/08/22 08:23:09;;;;;;;3.05;2.20;;;;;;;16.46;100.00;96190.55;1658692;84;20971;-85
2022/08/22 08:25:52;;;;;;;2.58;1.95;;;;;;;16.48;100.00;96188.50;1683821;84;20963;-84
2022/08/22 08:28:33;;;;;;;3.00;1.67;;;;;;;16.51;100.00;96191.47;1680871;84;21078;-85
2022/08/22 08:31:06;;;;;;;1.70;1.35;;;;;;;16.51;100.00;96192.78;1676629;84;20968;-85
2022/08/22 08:33:32;;;;;;;1.80;1.57;;;;;;;16.50;100.00;96189.87;1679452;85;21445;-86
2022/08/22 08:36:35;;;;;;;2.45;1.45;;;;;;;16.53;100.00;96189.92;1668553;85;20984;-86
2022/08/22 08:39:19;;;;;;;3.35;2.40;;;;;;;16.55;100.00;96193.13;1670559;85;20984;-84
2022/08/22 08:42:11;;;;;;;2.12;1.90;;;;;;;16.58;100.00;96193.98;1674723;85;20990;-85
2022/08/22 08:45:10;;;;;;;1.90;1.45;;;;;;;16.59;100.00;96190.33;1695235;84;21067;-84
2022/08/22 08:48:00;;;;;;;2.20;1.60;;;;;;;16.62;100.00;96191.23;1677116;84;21123;-84
2022/08/22 08:50:38;;;;;;;3.08;2.05;;;;;;;16.63;100.00;96187.58;1687561;84;21087;-84
2022/08/22 08:54:02;;;;;;;1.65;1.35;;;;;;;16.66;100.00;96196.30;1681275;84;21078;-86
2022/08/22 09:07:00;;;;;;;1.42;1.00;;;;;;;16.64;100.00;96207.53;1724568;81;21109;-83
2022/08/22 09:09:43;;;;;;;1.62;1.02;;;;;;;16.67;100.00;96222.05;1715297;81;21360;-83
2022/08/22 09:12:54;;;;;;;2.00;1.10;;;;;;;16.67;100.00;96223.36;1725254;81;21036;-83
2022/08/22 09:15:33;;;;;;;5.95;3.10;;;;;;;16.68;100.00;96211.34;1679370;84;21420;-84
2022/08/22 09:18:19;;;;;;;2.00;1.02;;;;;;;16.73;100.00;96211.45;1666313;85;21370;-84
2022/08/22 09:21:09;;;;;;;2.80;1.90;;;;;;;16.73;100.00;96205.41;1705067;81;21012;-83
2022/08/22 09:23:53;;;;;;;1.72;1.27;;;;;;;16.76;100.00;96213.66;1707013;83;20999;-83
2022/08/22 09:26:37;;;;;;;1.17;0.50;;;;;;;16.83;100.00;96224.04;1718215;81;21071;-85
2022/08/22 09:29:24;;;;;;;0.70;0.47;;;;;;;16.84;100.00;96224.33;1708546;81;21000;-86
2022/08/22 09:32:22;;;;;;;2.20;1.72;;;;;;;16.88;100.00;96220.22;1723099;81;21044;-86
2022/08/22 09:35:03;;;;;;;1.70;1.60;;;;;;;16.99;100.00;96214.72;1722766;81;21032;-83
2022/08/22 09:38:02;;;;;;;0.70;0.50;;;;;;;17.03;100.00;96219.28;1714104;81;21372;-82
2022/08/22 09:40:39;;;;;;;0.80;0.50;;;;;;;17.03;100.00;96227.16;1719167;81;21441;-82
2022/08/22 09:43:14;;;;;;;0.75;0.50;;;;;;;17.05;100.00;96221.16;1689491;81;21014;-83
2022/08/22 09:45:47;;;;;;;2.12;1.92;;;;;;;17.10;100.00;96222.63;1727967;81;21434;-82
2022/08/22 09:48:40;;;;;;;1.50;1.27;;;;;;;17.17;100.00;96222.50;1714937;81;20997;-83
2022/08/22 09:51:33;;;;;;;0.65;0.50;;;;;;;17.27;100.00;96218.02;1731045;81;21072;-83
2022/08/22 09:54:28;;;;;;;28.83;17.77;;;;;;;17.52;100.00;96207.27;1703709;81;21017;-83
2022/08/22 09:57:42;;;;;;;27.37;17.00;;;;;;;17.77;100.00;96218.38;1704849;81;20992;-83
2022/08/22 10:00:18;;;;;;;23.18;13.70;;;;;;;17.85;100.00;96212.75;1713317;81;21092;-85
2022/08/22 10:03:02;;;;;;;22.77;14.58;;;;;;;17.88;100.00;96220.16;1716233;81;20976;-85
2022/08/22 10:05:45;;;;;;;101.47;68.25;;;;;;;17.84;100.00;96225.60;1713267;81;21510;-85
2022/08/22 10:08:34;;;;;;;43.55;28.80;;;;;;;17.79;100.00;96223.39;1721333;82;20989;-85
2022/08/22 10:11:26;;;;;;;17.27;12.43;;;;;;;17.72;100.00;96222.19;1712762;82;21064;-85
2022/08/22 10:14:09;;;;;;;4.70;4.03;;;;;;;17.68;100.00;96219.22;1717472;83;21048;-85
2022/08/22 10:16:46;;;;;;;2.40;2.20;;;;;;;17.65;100.00;96226.73;1714034;83;20981;-85
2022/08/22 10:19:33;;;;;;;2.30;1.92;;;;;;;17.62;100.00;96228.00;1684163;83;21021;-84
2022/08/22 10:22:35;;;;;;;3.20;2.90;;;;;;;17.64;100.00;96227.77;1715259;83;21056;-85
2022/08/22 10:25:29;;;;;;;2.30;1.42;;;;;;;17.62;100.00;96228.00;1702405;82;21351;-86
2022/08/22 10:28:22;;;;;;;1.60;0.72;;;;;;;17.60;100.00;96228.75;1708515;82;20921;-85
2022/08/22 10:31:06;;;;;;;2.40;1.20;;;;;;;17.56;100.00;96230.22;1714645;82;21362;-84
2022/08/22 10:33:44;;;;;;;2.58;1.52;;;;;;;17.63;100.00;96227.48;1712506;82;21019;-85
2022/08/22 10:36:16;;;;;;;8.68;6.17;;;;;;;17.72;100.00;96233.21;1703792;82;21087;-84
2022/08/22 10:38:46;;;;;;;3.58;2.00;;;;;;;17.76;100.00;96233.86;1721017;83;22314;-85
2022/08/22 10:41:35;;;;;;;1.30;0.72;;;;;;;17.74;100.00;96239.86;1722061;83;21076;-84
2022/08/22 10:44:15;;;;;;;2.92;1.77;;;;;;;17.77;100.00;96240.71;1691718;83;21000;-83
2022/08/22 10:46:57;;;;;;;3.02;2.35;;;;;;;17.81;100.00;96237.09;1721305;83;21123;-82
2022/08/22 10:49:34;;;;;;;3.45;2.37;;;;;;;17.82;100.00;96239.49;1693022;83;21084;-83
2022/08/22 10:52:13;;;;;;;1.77;1.20;;;;;;;17.85;100.00;96238.23;1711438;83;20980;-82
2022/08/22 10:55:07;;;;;;;1.17;0.78;;;;;;;17.87;100.00;96237.48;1672287;84;20956;-82
2022/08/22 10:57:57;;;;;;;1.32;0.82;;;;;;;17.87;100.00;96238.80;1724379;83;21130;-82
2022/08/22 11:00:49;;;;;;;1.95;1.02;;;;;;;17.84;100.00;96234.00;1734934;82;21085;-82
2022/08/22 11:03:35;;;;;;;1.65;0.90;;;;;;;17.83;100.00;96235.84;1714154;83;21104;-82
2022/08/22 11:06:23;;;;;;;1.70;1.12;;;;;;;17.87;100.00;96233.02;1719078;83;21041;-82
2022/08/22 11:09:18;;;;;;;2.92;1.17;;;;;;;17.89;100.00;96234.10;1721531;82;21066;-83
2022/08/22 11:12:18;;;;;;;1.87;1.57;;;;;;;17.87;100.00;96230.39;1642333;83;20957;-83
2022/08/22 11:15:21;;;;;;;1.52;1.12;;;;;;;17.88;100.00;96229.88;1710982;82;21068;-83
2022/08/22 11:18:19;;;;;;;1.92;1.50;;;;;;;17.80;100.00;96227.10;1710800;81;21420;-82
2022/08/22 11:21:09;;;;;;;1.75;1.57;;;;;;;17.75;100.00;96234.89;1717944;82;20973;-82
2022/08/22 11:23:49;;;;;;;2.33;1.52;;;;;;;17.82;100.00;96228.98;1737305;81;20996;-82
2022/08/22 11:26:35;;;;;;;2.58;2.20;;;;;;;17.84;100.00;96235.32;1722092;81;21399;-82
2022/08/22 11:29:30;;;;;;;3.95;2.40;;;;;;;17.81;100.00;96231.33;1727235;82;20989;-82
2022/08/22 11:32:33;;;;;;;3.00;2.80;;;;;;;17.76;100.00;96228.59;1722523;81;21033;-82
2022/08/22 11:35:24;;;;;;;3.87;2.58;;;;;;;17.74;100.00;96225.41;1699901;83;21013;-83
2022/08/22 11:37:59;;;;;;;3.97;2.90;;;;;;;17.74;100.00;96226.72;1715080;82;20988;-82
2022/08/22 11:40:52;;;;;;;3.22;2.80;;;;;;;17.75;100.00;96229.63;1725659;82;20984;-82
2022/08/22 11:43:40;;;;;;;4.28;3.87;;;;;;;17.72;100.00;96234.01;1719357;83;20949;-83
2022/08/22 11:46:31;;;;;;;4.17;3.17;;;;;;;17.68;100.00;96243.39;1713105;82;21412;-83
2022/08/22 11:49:11;;;;;;;4.17;3.75;;;;;;;17.67;100.00;96242.55;1710600;82;21013;-82
2022/08/22 11:52:04;;;;;;;4.12;3.60;;;;;;;17.60;100.00;96244.52;1743719;81;21028;-83
2022/08/22 11:54:48;;;;;;;;;;;;;;;17.56;100.00;96240.72;1708136;82;20982;-82
2022/08/22 11:57:37;;;;;;;4.83;3.70;;;;;;;17.58;100.00;96240.52;1739821;81;20131;-82
2022/08/22 12:00:32;;;;;;;6.33;4.85;;;;;;;17.57;100.00;96244.15;1718423;82;21061;-82
2022/08/22 12:03:18;;;;;;;5.95;5.35;;;;;;;17.58;100.00;96237.89;1726251;81;21407;-83
2022/08/22 12:06:04;;;;;;;5.17;4.53;;;;;;;17.60;100.00;96234.52;1714968;81;21028;-83
2022/08/22 12:08:45;;;;;;;5.85;4.95;;;;;;;17.62;100.00;96237.20;1704164;83;21048;-82
2022/08/22 12:11:34;;;;;;;6.45;4.92;;;;;;;17.64;100.00;96232.52;1729720;80;20984;-82
2022/08/22 12:14:11;;;;;;;6.10;5.45;;;;;;;17.64;100.00;96227.25;1686465;83;21381;-82
2022/08/22 12:17:04;;;;;;;6.28;5.67;;;;;;;17.66;100.00;96226.52;1711652;81;21089;-83
2022/08/22 12:19:53;;;;;;;7.12;5.60;;;;;;;17.67;100.00;96224.16;1720751;80;20950;-82
2022/08/22 12:22:45;;;;;;;7.53;6.58;;;;;;;17.65;100.00;96227.54;1724534;81;20996;-82
2022/08/22 12:25:20;;;;;;;9.15;6.22;;;;;;;17.63;100.00;96226.97;1702089;82;21463;-82
2022/08/22 12:27:54;;;;;;;9.30;6.72;;;;;;;17.63;100.00;96225.66;1723858;81;21084;-82
2022/08/22 12:30:42;;;;;;;7.65;6.00;;;;;;;17.62;100.00;96221.44;1707477;83;20968;-82
2022/08/22 12:33:42;;;;;;;6.62;5.90;;;;;;;17.66;100.00;96225.20;1736816;81;21536;-82
2022/08/22 12:36:25;;;;;;;7.90;6.20;;;;;;;17.68;100.00;96221.05;1727446;82;21113;-82
2022/08/22 12:39:23;;;;;;;6.65;5.55;;;;;;;17.68;100.00;96220.53;1707836;82;20969;-82
2022/08/22 12:42:16;;;;;;;7.05;6.20;;;;;;;17.69;100.00;96218.70;1724258;81;21034;-82
2022/08/22 12:44:56;;;;;;;8.63;6.67;;;;;;;17.69;100.00;96213.45;1726301;81;21044;-82
2022/08/22 12:47:59;;;;;;;8.43;6.80;;;;;;;17.69;100.00;96211.63;1727965;82;21055;-82
2022/08/22 12:50:36;;;;;;;8.28;7.08;;;;;;;17.73;100.00;96211.95;1723537;82;21058;-81
2022/08/22 12:53:33;;;;;;;8.28;6.67;;;;;;;17.71;100.00;96214.02;1719880;82;20991;-82
2022/08/22 12:56:11;;;;;;;8.50;7.70;;;;;;;17.73;100.00;96216.41;1729811;82;20933;-82